createdAt,value
2023-05-25T00:00:13.962Z,100.00
2023-05-25T00:01:18.870Z,100.00
2023-05-25T00:02:24.477Z,100.00
2023-05-25T00:03:27.982Z,100.00
2023-05-25T00:04:37.022Z,100.00
2023-05-25T00:05:39.711Z,100.00
2023-05-25T00:06:42.078Z,100.00
2023-05-25T00:07:44.105Z,100.00
2023-05-25T00:08:46.601Z,100.00
2023-05-25T00:09:48.556Z,100.00
2023-05-25T00:10:50.652Z,100.00
2023-05-25T00:11:52.942Z,100.00
2023-05-25T00:12:57.059Z,100.00
2023-05-25T00:13:59.164Z,100.00
2023-05-25T00:15:01.350Z,100.00
2023-05-25T00:16:03.415Z,100.00
2023-05-25T00:17:05.550Z,100.00
2023-05-25T00:18:07.807Z,100.00
2023-05-25T00:19:10.887Z,100.00
2023-05-25T00:20:14.783Z,100.00
2023-05-25T00:21:16.829Z,100.00
2023-05-25T00:22:20.511Z,100.00
2023-05-25T00:23:22.556Z,100.00
2023-05-25T00:24:24.611Z,100.00
2023-05-25T00:25:26.610Z,100.00
2023-05-25T00:26:28.594Z,100.00
2023-05-25T00:27:31.259Z,100.00
2023-05-25T00:28:33.319Z,100.00
2023-05-25T00:29:35.714Z,100.00
2023-05-25T00:30:38.086Z,100.00
2023-05-25T00:31:40.121Z,100.00
2023-05-25T00:32:42.195Z,100.00
2023-05-25T00:33:44.257Z,100.00
2023-05-25T00:34:47.264Z,100.00
2023-05-25T00:35:49.261Z,100.00
2023-05-25T00:36:51.317Z,100.00
2023-05-25T00:37:53.315Z,100.00
2023-05-25T00:38:55.380Z,100.00
2023-05-25T00:39:57.383Z,100.00
2023-05-25T00:40:59.476Z,100.00
2023-05-25T00:42:02.602Z,100.00
2023-05-25T00:43:04.654Z,100.00
2023-05-25T00:44:06.776Z,100.00
2023-05-25T00:45:08.997Z,100.00
2023-05-25T00:46:11.123Z,100.00
2023-05-25T00:47:16.258Z,100.00
2023-05-25T00:48:18.440Z,100.00
2023-05-25T00:49:22.508Z,100.00
2023-05-25T00:50:36.261Z,100.00
2023-05-25T00:51:38.282Z,100.00
2023-05-25T00:52:41.762Z,100.00
2023-05-25T00:53:43.782Z,100.00
2023-05-25T00:54:48.415Z,100.00
2023-05-25T00:55:53.321Z,100.00
2023-05-25T00:57:04.104Z,100.00
2023-05-25T00:58:07.761Z,100.00
2023-05-25T00:59:11.836Z,100.00
2023-05-25T01:00:14.331Z,100.00
2023-05-25T01:01:16.827Z,100.00
2023-05-25T01:02:19.691Z,100.00
2023-05-25T01:03:22.727Z,100.00
2023-05-25T01:04:28.337Z,100.00
2023-05-25T01:05:32.029Z,100.00
2023-05-25T01:06:34.889Z,100.00
2023-05-25T01:07:37.103Z,100.00
2023-05-25T01:08:41.309Z,100.00
2023-05-25T01:09:45.301Z,100.00
2023-05-25T01:10:48.814Z,100.00
2023-05-25T01:11:52.146Z,100.00
2023-05-25T01:12:55.184Z,100.00
2023-05-25T01:13:58.241Z,100.00
2023-05-25T01:15:03.917Z,100.00
2023-05-25T01:16:06.730Z,100.00
2023-05-25T01:17:09.977Z,100.00
2023-05-25T01:18:15.134Z,100.00
2023-05-25T01:19:18.441Z,100.00
2023-05-25T01:20:20.520Z,100.00
2023-05-25T01:21:29.332Z,100.00
2023-05-25T01:22:40.631Z,100.00
2023-05-25T01:23:48.860Z,100.00
2023-05-25T01:24:55.699Z,100.00
2023-05-25T01:25:59.744Z,100.00
2023-05-25T01:27:01.787Z,100.00
2023-05-25T01:28:13.150Z,100.00
2023-05-25T01:29:17.600Z,100.00
2023-05-25T01:30:20.000Z,100.00
2023-05-25T01:31:23.136Z,100.00
2023-05-25T01:32:26.316Z,100.00
2023-05-25T01:33:29.263Z,100.00
2023-05-25T01:34:32.317Z,100.00
2023-05-25T01:35:35.455Z,100.00
2023-05-25T01:36:37.873Z,100.00
2023-05-25T01:37:45.383Z,100.00
2023-05-25T01:38:47.397Z,100.00
2023-05-25T01:39:49.359Z,100.00
2023-05-25T01:40:51.322Z,100.00
2023-05-25T01:41:53.266Z,100.00
2023-05-25T01:42:55.581Z,100.00
2023-05-25T01:43:57.631Z,100.00
2023-05-25T01:45:00.370Z,100.00
2023-05-25T01:46:25.251Z,100.00
2023-05-25T01:47:38.788Z,100.00
2023-05-25T01:48:45.595Z,100.00
2023-05-25T01:50:06.447Z,100.00
2023-05-25T01:51:15.274Z,100.00
2023-05-25T01:52:17.349Z,100.00
2023-05-25T01:53:22.795Z,100.00
2023-05-25T01:54:29.394Z,100.00
2023-05-25T01:55:36.843Z,100.00
2023-05-25T01:56:40.126Z,100.00
2023-05-25T01:57:43.234Z,100.00
2023-05-25T01:58:46.802Z,100.00
2023-05-25T01:59:49.552Z,100.00
2023-05-25T02:00:53.777Z,100.00
2023-05-25T02:01:56.269Z,100.00
2023-05-25T02:02:59.096Z,100.00
2023-05-25T02:04:01.798Z,100.00
2023-05-25T02:05:04.098Z,100.00
2023-05-25T02:06:06.399Z,100.00
2023-05-25T02:07:10.921Z,100.00
2023-05-25T02:08:13.007Z,100.00
2023-05-25T02:09:15.022Z,100.00
2023-05-25T02:10:17.107Z,100.00
2023-05-25T02:11:19.257Z,100.00
2023-05-25T02:12:21.662Z,100.00
2023-05-25T02:13:23.784Z,100.00
2023-05-25T02:14:26.006Z,100.00
2023-05-25T02:15:32.836Z,100.00
2023-05-25T02:16:35.097Z,100.00
2023-05-25T02:17:37.780Z,100.00
2023-05-25T02:18:41.012Z,100.00
2023-05-25T02:19:43.406Z,100.00
2023-05-25T02:20:45.673Z,100.00
2023-05-25T02:21:47.732Z,100.00
2023-05-25T02:22:49.676Z,100.00
2023-05-25T02:23:53.966Z,100.00
2023-05-25T02:24:55.995Z,100.00
2023-05-25T02:25:57.999Z,100.00
2023-05-25T02:27:01.810Z,100.00
2023-05-25T02:28:04.714Z,100.00
2023-05-25T02:29:07.508Z,100.00
2023-05-25T02:30:09.691Z,100.00
2023-05-25T02:31:11.728Z,100.00
2023-05-25T02:32:14.496Z,100.00
2023-05-25T02:33:16.469Z,100.00
2023-05-25T02:34:18.466Z,100.00
2023-05-25T02:35:21.032Z,100.00
2023-05-25T02:36:22.992Z,100.00
2023-05-25T02:37:25.079Z,100.00
2023-05-25T02:38:27.133Z,100.00
2023-05-25T02:39:29.232Z,100.00
2023-05-25T02:40:33.232Z,100.00
2023-05-25T02:41:35.274Z,100.00
2023-05-25T02:42:37.376Z,100.00
2023-05-25T02:43:39.371Z,100.00
2023-05-25T02:44:42.566Z,100.00
2023-05-25T02:45:44.932Z,100.00
2023-05-25T02:46:47.602Z,100.00
2023-05-25T02:47:49.660Z,100.00
2023-05-25T02:48:51.820Z,100.00
2023-05-25T02:49:53.838Z,100.00
2023-05-25T02:50:55.788Z,100.00
2023-05-25T02:51:57.861Z,100.00
2023-05-25T02:52:59.841Z,100.00
2023-05-25T02:54:01.879Z,100.00
2023-05-25T02:55:04.072Z,100.00
2023-05-25T02:56:11.296Z,100.00
2023-05-25T02:57:13.587Z,100.00
2023-05-25T02:58:15.674Z,100.00
2023-05-25T02:59:44.051Z,100.00
2023-05-25T03:00:46.841Z,100.00
2023-05-25T03:01:49.970Z,100.00
2023-05-25T03:02:52.686Z,100.00
2023-05-25T03:03:55.062Z,100.00
2023-05-25T03:05:00.910Z,100.00
2023-05-25T03:06:05.419Z,100.00
2023-05-25T03:07:07.549Z,100.00
2023-05-25T03:08:09.576Z,100.00
2023-05-25T03:09:11.935Z,100.00
2023-05-25T03:10:14.945Z,100.00
2023-05-25T03:11:16.993Z,100.00
2023-05-25T03:12:19.209Z,100.00
2023-05-25T03:13:21.191Z,100.00
2023-05-25T03:14:23.809Z,100.00
2023-05-25T03:15:40.212Z,100.00
2023-05-25T03:16:42.673Z,100.00
2023-05-25T03:17:44.877Z,100.00
2023-05-25T03:18:47.313Z,100.00
2023-05-25T03:19:49.340Z,100.00
2023-05-25T03:20:51.582Z,100.00
2023-05-25T03:21:53.645Z,100.00
2023-05-25T03:22:56.060Z,100.00
2023-05-25T03:23:59.426Z,100.00
2023-05-25T03:25:01.461Z,100.00
2023-05-25T03:26:03.514Z,100.00
2023-05-25T03:27:06.158Z,100.00
2023-05-25T03:28:08.149Z,100.00
2023-05-25T03:29:10.412Z,100.00
2023-05-25T03:30:13.107Z,100.00
2023-05-25T03:31:15.187Z,100.00
2023-05-25T03:32:17.390Z,100.00
2023-05-25T03:33:19.555Z,100.00
2023-05-25T03:34:24.705Z,100.00
2023-05-25T03:35:26.936Z,100.00
2023-05-25T03:36:30.973Z,100.00
2023-05-25T03:37:33.003Z,100.00
2023-05-25T03:38:36.350Z,100.00
2023-05-25T03:39:38.495Z,100.00
2023-05-25T03:40:40.767Z,100.00
2023-05-25T03:41:44.180Z,100.00
2023-05-25T03:42:46.600Z,100.00
2023-05-25T03:43:48.627Z,100.00
2023-05-25T03:44:50.645Z,100.00
2023-05-25T03:45:53.136Z,100.00
2023-05-25T03:46:55.138Z,100.00
2023-05-25T03:47:57.209Z,100.00
2023-05-25T03:48:59.940Z,100.00
2023-05-25T03:50:02.603Z,100.00
2023-05-25T03:51:04.652Z,100.00
2023-05-25T03:52:06.770Z,100.00
2023-05-25T03:53:08.815Z,100.00
2023-05-25T03:54:11.151Z,100.00
2023-05-25T03:55:15.222Z,100.00
2023-05-25T03:56:17.266Z,100.00
2023-05-25T03:57:19.288Z,100.00
2023-05-25T03:58:21.321Z,100.00
2023-05-25T03:59:23.330Z,100.00
2023-05-25T04:00:25.374Z,100.00
2023-05-25T04:01:29.962Z,100.00
2023-05-25T04:02:32.322Z,100.00
2023-05-25T04:03:34.517Z,100.00
2023-05-25T04:04:38.412Z,100.00
2023-05-25T04:05:42.133Z,100.00
2023-05-25T04:06:46.077Z,100.00
2023-05-25T04:07:48.172Z,100.00
2023-05-25T04:08:50.538Z,100.00
2023-05-25T04:09:52.539Z,100.00
2023-05-25T04:10:54.554Z,100.00
2023-05-25T04:11:56.597Z,100.00
2023-05-25T04:12:59.902Z,100.00
2023-05-25T04:14:02.199Z,100.00
2023-05-25T04:15:09.417Z,100.00
2023-05-25T04:16:22.349Z,100.00
2023-05-25T04:17:25.317Z,100.00
2023-05-25T04:18:28.072Z,100.00
2023-05-25T04:19:30.068Z,100.00
2023-05-25T04:20:32.487Z,100.00
2023-05-25T04:21:59.914Z,100.00
2023-05-25T04:23:02.512Z,100.00
2023-05-25T04:24:05.044Z,100.00
2023-05-25T04:25:07.852Z,100.00
2023-05-25T04:26:10.440Z,100.00
2023-05-25T04:27:14.831Z,100.00
2023-05-25T04:28:17.718Z,100.00
2023-05-25T04:29:25.344Z,100.00
2023-05-25T04:30:45.426Z,100.00
2023-05-25T04:32:09.528Z,100.00
2023-05-25T04:33:29.856Z,100.00
2023-05-25T04:34:37.772Z,100.00
2023-05-25T04:35:46.842Z,100.00
2023-05-25T04:36:49.572Z,100.00
2023-05-25T04:37:54.471Z,100.00
2023-05-25T04:38:56.495Z,100.00
2023-05-25T04:39:59.609Z,100.00
2023-05-25T04:41:06.456Z,100.00
2023-05-25T04:42:08.613Z,100.00
2023-05-25T04:43:11.362Z,100.00
2023-05-25T04:44:13.953Z,100.00
2023-05-25T04:45:25.251Z,100.00
2023-05-25T04:46:28.345Z,100.00
2023-05-25T04:47:31.029Z,100.00
2023-05-25T04:48:34.265Z,100.00
2023-05-25T04:49:36.314Z,100.00
2023-05-25T04:50:41.888Z,100.00
2023-05-25T04:51:44.557Z,100.00
2023-05-25T04:52:46.609Z,100.00
2023-05-25T04:53:48.992Z,100.00
2023-05-25T04:54:51.566Z,100.00
2023-05-25T04:55:54.754Z,100.00
2023-05-25T04:56:58.298Z,100.00
2023-05-25T04:58:00.988Z,100.00
2023-05-25T04:59:04.422Z,100.00
2023-05-25T05:00:09.725Z,100.00
2023-05-25T05:01:12.887Z,100.00
2023-05-25T05:02:15.541Z,100.00
2023-05-25T05:03:18.177Z,100.00
2023-05-25T05:04:20.294Z,100.00
2023-05-25T05:05:22.775Z,100.00
2023-05-25T05:06:25.843Z,100.00
2023-05-25T05:07:29.060Z,100.00
2023-05-25T05:08:31.463Z,100.00
2023-05-25T05:09:33.881Z,100.00
2023-05-25T05:10:36.880Z,100.00
2023-05-25T05:11:39.146Z,100.00
2023-05-25T05:12:42.296Z,100.00
2023-05-25T05:13:44.981Z,100.00
2023-05-25T05:14:47.073Z,100.00
2023-05-25T05:15:49.206Z,100.00
2023-05-25T05:16:51.444Z,100.00
2023-05-25T05:17:54.011Z,100.00
2023-05-25T05:18:56.241Z,100.00
2023-05-25T05:19:58.361Z,100.00
2023-05-25T05:21:00.359Z,100.00
2023-05-25T05:22:02.513Z,100.00
2023-05-25T05:23:04.733Z,100.00
2023-05-25T05:24:06.769Z,100.00
2023-05-25T05:25:09.218Z,100.00
2023-05-25T05:26:11.817Z,100.00
2023-05-25T05:27:16.022Z,100.00
2023-05-25T05:28:22.535Z,100.00
2023-05-25T05:29:24.537Z,100.00
2023-05-25T05:30:26.539Z,100.00
2023-05-25T05:31:29.538Z,100.00
2023-05-25T05:32:31.642Z,100.00
2023-05-25T05:33:35.155Z,100.00
2023-05-25T05:34:38.039Z,100.00
2023-05-25T05:35:46.309Z,100.00
2023-05-25T05:36:57.275Z,100.00
2023-05-25T05:38:00.585Z,100.00
2023-05-25T05:39:03.480Z,100.00
2023-05-25T05:40:06.881Z,100.00
2023-05-25T05:41:14.320Z,100.00
2023-05-25T05:42:17.144Z,100.00
2023-05-25T05:43:19.234Z,100.00
2023-05-25T05:44:23.072Z,100.00
2023-05-25T05:45:26.690Z,100.00
2023-05-25T05:46:28.760Z,100.00
2023-05-25T05:47:30.779Z,100.00
2023-05-25T05:48:32.797Z,100.00
2023-05-25T05:49:34.822Z,100.00
2023-05-25T05:50:37.862Z,100.00
2023-05-25T05:51:40.961Z,100.00
2023-05-25T05:52:42.980Z,100.00
2023-05-25T05:53:46.384Z,100.00
2023-05-25T05:54:48.396Z,100.00
2023-05-25T05:55:56.225Z,100.00
2023-05-25T05:56:59.075Z,100.00
2023-05-25T05:58:01.138Z,100.00
2023-05-25T05:59:03.268Z,100.00
2023-05-25T06:00:07.110Z,100.00
2023-05-25T06:01:19.833Z,100.00
2023-05-25T06:02:23.206Z,100.00
2023-05-25T06:03:27.597Z,100.00
2023-05-25T06:04:30.252Z,100.00
2023-05-25T06:05:33.545Z,100.00
2023-05-25T06:06:37.691Z,100.00
2023-05-25T06:07:40.045Z,100.00
2023-05-25T06:08:42.625Z,100.00
2023-05-25T06:09:46.506Z,100.00
2023-05-25T06:10:49.131Z,100.00
2023-05-25T06:11:51.596Z,100.00
2023-05-25T06:12:54.115Z,100.00
2023-05-25T06:13:56.746Z,100.00
2023-05-25T06:14:59.552Z,100.00
2023-05-25T06:16:01.661Z,100.00
2023-05-25T06:17:03.889Z,100.00
2023-05-25T06:18:06.176Z,100.00
2023-05-25T06:19:08.638Z,100.00
2023-05-25T06:20:10.840Z,100.00
2023-05-25T06:21:13.141Z,100.00
2023-05-25T06:22:15.725Z,100.00
2023-05-25T06:23:18.951Z,100.00
2023-05-25T06:24:20.978Z,100.00
2023-05-25T06:25:22.989Z,100.00
2023-05-25T06:26:25.956Z,100.00
2023-05-25T06:27:27.932Z,100.00
2023-05-25T06:28:30.019Z,100.00
2023-05-25T06:29:33.352Z,100.00
2023-05-25T06:30:35.326Z,100.00
2023-05-25T06:31:38.323Z,100.00
2023-05-25T06:32:40.392Z,100.00
2023-05-25T06:33:42.546Z,100.00
2023-05-25T06:34:44.557Z,100.00
2023-05-25T06:35:47.082Z,100.00
2023-05-25T06:36:49.731Z,100.00
2023-05-25T06:37:51.707Z,100.00
2023-05-25T06:38:54.830Z,100.00
2023-05-25T06:39:57.759Z,100.00
2023-05-25T06:41:04.864Z,100.00
2023-05-25T06:42:07.734Z,100.00
2023-05-25T06:43:09.710Z,100.00
2023-05-25T06:44:50.224Z,100.00
2023-05-25T06:45:53.096Z,100.00
2023-05-25T06:46:55.088Z,100.00
2023-05-25T06:47:57.602Z,100.00
2023-05-25T06:49:01.250Z,100.00
2023-05-25T06:50:03.501Z,100.00
2023-05-25T06:51:06.092Z,100.00
2023-05-25T06:52:08.037Z,100.00
2023-05-25T06:53:11.250Z,100.00
2023-05-25T06:54:14.969Z,100.00
2023-05-25T06:55:17.023Z,100.00
2023-05-25T06:56:19.099Z,100.00
2023-05-25T06:57:21.149Z,100.00
2023-05-25T06:58:23.146Z,100.00
2023-05-25T06:59:25.333Z,100.00
2023-05-25T07:00:27.291Z,100.00
2023-05-25T07:01:29.305Z,100.00
2023-05-25T07:02:31.339Z,100.00
2023-05-25T07:03:33.435Z,100.00
2023-05-25T07:04:35.477Z,100.00
2023-05-25T07:05:37.501Z,100.00
2023-05-25T07:06:39.892Z,100.00
2023-05-25T07:07:41.911Z,100.00
2023-05-25T07:08:43.850Z,100.00
2023-05-25T07:09:45.828Z,100.00
2023-05-25T07:10:49.844Z,100.00
2023-05-25T07:11:52.276Z,100.00
2023-05-25T07:12:54.295Z,100.00
2023-05-25T07:13:56.269Z,100.00
2023-05-25T07:14:58.365Z,100.00
2023-05-25T07:16:00.540Z,100.00
2023-05-25T07:17:02.572Z,100.00
2023-05-25T07:18:04.852Z,100.00
2023-05-25T07:19:06.865Z,100.00
2023-05-25T07:20:09.026Z,100.00
2023-05-25T07:21:11.113Z,100.00
2023-05-25T07:22:13.222Z,100.00
2023-05-25T07:23:15.223Z,100.00
2023-05-25T07:24:18.258Z,100.00
2023-05-25T07:25:21.257Z,100.00
2023-05-25T07:26:23.411Z,100.00
2023-05-25T07:27:25.512Z,100.00
2023-05-25T07:28:27.546Z,100.00
2023-05-25T07:29:29.757Z,100.00
2023-05-25T07:30:31.777Z,100.00
2023-05-25T07:31:34.106Z,100.00
2023-05-25T07:32:36.198Z,100.00
2023-05-25T07:33:38.177Z,100.00
2023-05-25T07:34:40.140Z,100.00
2023-05-25T07:35:42.214Z,100.00
2023-05-25T07:36:44.272Z,100.00
2023-05-25T07:37:46.299Z,100.00
2023-05-25T07:38:48.276Z,100.00
2023-05-25T07:39:50.591Z,100.00
2023-05-25T07:40:52.677Z,100.00
2023-05-25T07:41:57.243Z,100.00
2023-05-25T07:42:59.212Z,100.00
2023-05-25T07:44:01.270Z,100.00
2023-05-25T07:45:03.350Z,100.00
2023-05-25T07:46:05.775Z,100.00
2023-05-25T07:47:08.006Z,100.00
2023-05-25T07:48:10.132Z,100.00
2023-05-25T07:49:15.956Z,100.00
2023-05-25T07:50:18.079Z,100.00
2023-05-25T07:51:21.107Z,100.00
2023-05-25T07:52:23.102Z,100.00
2023-05-25T07:53:25.061Z,100.00
2023-05-25T07:54:27.000Z,100.00
2023-05-25T07:55:29.013Z,100.00
2023-05-25T07:56:31.008Z,100.00
2023-05-25T07:57:33.013Z,100.00
2023-05-25T07:58:34.991Z,100.00
2023-05-25T07:59:37.037Z,100.00
2023-05-25T08:00:39.005Z,100.00
2023-05-25T08:01:40.984Z,100.00
2023-05-25T08:02:43.089Z,100.00
2023-05-25T08:03:49.685Z,100.00
2023-05-25T08:04:52.476Z,100.00
2023-05-25T08:05:54.579Z,100.00
2023-05-25T08:06:57.213Z,100.00
2023-05-25T08:07:59.191Z,100.00
2023-05-25T08:09:03.395Z,100.00
2023-05-25T08:10:05.585Z,100.00
2023-05-25T08:11:07.857Z,100.00
2023-05-25T08:13:14.677Z,100.00
2023-05-25T08:14:16.667Z,100.00
2023-05-25T08:15:18.769Z,100.00
2023-05-25T08:16:20.852Z,100.00
2023-05-25T08:17:23.032Z,100.00
2023-05-25T08:18:25.072Z,100.00
2023-05-25T08:19:27.021Z,100.00
2023-05-25T08:20:29.368Z,100.00
2023-05-25T08:21:34.964Z,100.00
2023-05-25T08:22:37.057Z,100.00
2023-05-25T08:23:42.372Z,100.00
2023-05-25T08:24:44.499Z,100.00
2023-05-25T08:25:46.809Z,100.00
2023-05-25T08:26:54.933Z,100.00
2023-05-25T08:27:57.331Z,100.00
2023-05-25T08:28:59.491Z,100.00
2023-05-25T08:30:01.693Z,100.00
2023-05-25T08:31:04.360Z,100.00
2023-05-25T08:32:06.509Z,100.00
2023-05-25T08:33:08.620Z,100.00
2023-05-25T08:34:10.658Z,100.00
2023-05-25T08:35:14.143Z,100.00
2023-05-25T08:36:16.308Z,100.00
2023-05-25T08:37:19.944Z,100.00
2023-05-25T08:38:25.679Z,100.00
2023-05-25T08:39:27.712Z,100.00
2023-05-25T08:40:29.823Z,100.00
2023-05-25T08:41:32.654Z,100.00
2023-05-25T08:42:34.713Z,100.00
2023-05-25T08:43:36.720Z,100.00
2023-05-25T08:44:38.694Z,100.00
2023-05-25T08:45:46.907Z,100.00
2023-05-25T08:46:50.285Z,100.00
2023-05-25T08:47:54.216Z,100.00
2023-05-25T08:48:58.972Z,100.00
2023-05-25T08:50:01.697Z,100.00
2023-05-25T08:51:09.534Z,100.00
2023-05-25T08:52:16.210Z,100.00
2023-05-25T08:53:19.042Z,100.00
2023-05-25T08:54:32.379Z,100.00
2023-05-25T08:55:37.501Z,100.00
2023-05-25T08:56:59.937Z,100.00
2023-05-25T08:58:02.021Z,100.00
2023-05-25T08:59:22.739Z,100.00
2023-05-25T09:00:33.252Z,100.00
2023-05-25T09:01:39.333Z,100.00
2023-05-25T09:02:44.492Z,100.00
2023-05-25T09:03:48.221Z,100.00
2023-05-25T09:04:50.364Z,100.00
2023-05-25T09:05:52.300Z,100.00
2023-05-25T09:07:08.890Z,100.00
2023-05-25T09:08:12.694Z,100.00
2023-05-25T09:09:14.850Z,100.00
2023-05-25T09:10:17.164Z,100.00
2023-05-25T09:11:34.822Z,100.00
2023-05-25T09:12:38.839Z,100.00
2023-05-25T09:13:41.064Z,100.00
2023-05-25T09:14:47.772Z,100.00
2023-05-25T09:15:50.521Z,100.00
2023-05-25T09:16:52.874Z,100.00
2023-05-25T09:17:55.031Z,100.00
2023-05-25T09:18:57.066Z,100.00
2023-05-25T09:19:59.352Z,100.00
2023-05-25T09:21:01.899Z,100.00
2023-05-25T09:22:14.780Z,100.00
2023-05-25T09:23:18.512Z,100.00
2023-05-25T09:24:22.249Z,100.00
2023-05-25T09:25:26.318Z,100.00
2023-05-25T09:26:28.442Z,100.00
2023-05-25T09:27:34.047Z,100.00
2023-05-25T09:28:44.976Z,100.00
2023-05-25T09:29:47.643Z,97.63
2023-05-25T09:30:50.136Z,92.81
2023-05-25T09:31:52.311Z,91.33
2023-05-25T09:32:54.491Z,90.24
2023-05-25T09:34:00.103Z,97.75
2023-05-25T09:35:23.346Z,100.00
2023-05-25T09:36:25.859Z,100.00
2023-05-25T09:37:28.047Z,100.00
2023-05-25T09:38:30.613Z,100.00
2023-05-25T09:39:33.182Z,100.00
2023-05-25T09:40:35.956Z,100.00
2023-05-25T09:41:40.528Z,100.00
2023-05-25T09:42:42.498Z,100.00
2023-05-25T09:43:51.735Z,100.00
2023-05-25T09:45:04.379Z,100.00
2023-05-25T09:46:06.440Z,100.00
2023-05-25T09:47:09.140Z,100.00
2023-05-25T09:48:11.262Z,100.00
2023-05-25T09:49:13.285Z,100.00
2023-05-25T09:50:15.621Z,100.00
2023-05-25T09:51:17.694Z,100.00
2023-05-25T09:52:19.648Z,100.00
2023-05-25T09:53:21.672Z,100.00
2023-05-25T09:54:23.765Z,100.00
2023-05-25T09:55:36.868Z,100.00
2023-05-25T09:56:51.809Z,100.00
2023-05-25T09:57:55.030Z,100.00
2023-05-25T09:58:57.093Z,100.00
2023-05-25T09:59:59.137Z,100.00
2023-05-25T10:01:01.197Z,100.00
2023-05-25T10:02:03.302Z,100.00
2023-05-25T10:03:08.007Z,100.00
2023-05-25T10:04:10.356Z,100.00
2023-05-25T10:05:12.387Z,100.00
2023-05-25T10:06:20.284Z,100.00
2023-05-25T10:07:22.625Z,100.00
2023-05-25T10:08:27.993Z,100.00
2023-05-25T10:09:31.632Z,100.00
2023-05-25T10:10:33.755Z,100.00
2023-05-25T10:11:37.166Z,100.00
2023-05-25T10:12:41.088Z,100.00
2023-05-25T10:13:46.289Z,100.00
2023-05-25T10:14:50.218Z,100.00
2023-05-25T10:15:53.115Z,100.00
2023-05-25T10:16:57.578Z,100.00
2023-05-25T10:18:01.620Z,100.00
2023-05-25T10:19:12.605Z,100.00
2023-05-25T10:20:15.669Z,100.00
2023-05-25T10:21:19.263Z,100.00
2023-05-25T10:22:25.469Z,100.00
2023-05-25T10:23:28.506Z,100.00
2023-05-25T10:24:30.541Z,100.00
2023-05-25T10:25:39.941Z,100.00
2023-05-25T10:26:45.622Z,100.00
2023-05-25T10:27:49.816Z,100.00
2023-05-25T10:28:56.263Z,100.00
2023-05-25T10:29:59.893Z,100.00
2023-05-25T10:31:03.460Z,100.00
2023-05-25T10:32:05.856Z,100.00
2023-05-25T10:33:08.493Z,100.00
2023-05-25T10:34:10.496Z,100.00
2023-05-25T10:35:13.772Z,100.00
2023-05-25T10:36:17.949Z,100.00
2023-05-25T10:37:19.974Z,100.00
2023-05-25T10:38:22.268Z,100.00
2023-05-25T10:39:25.056Z,100.00
2023-05-25T10:40:27.059Z,100.00
2023-05-25T10:41:29.116Z,100.00
2023-05-25T10:42:31.237Z,100.00
2023-05-25T10:43:33.576Z,100.00
2023-05-25T10:44:35.711Z,100.00
2023-05-25T10:45:37.843Z,100.00
2023-05-25T10:46:40.280Z,100.00
2023-05-25T10:47:42.559Z,100.00
2023-05-25T10:48:48.580Z,100.00
2023-05-25T10:49:57.941Z,100.00
2023-05-25T10:51:00.102Z,100.00
2023-05-25T10:52:03.676Z,100.00
2023-05-25T10:53:06.213Z,100.00
2023-05-25T10:54:08.219Z,100.00
2023-05-25T10:55:10.371Z,100.00
2023-05-25T10:56:13.377Z,93.49
2023-05-25T10:57:19.997Z,92.38
2023-05-25T10:58:22.830Z,95.26
2023-05-25T10:59:27.693Z,100.00
2023-05-25T11:00:31.076Z,100.00
2023-05-25T11:01:33.705Z,100.00
2023-05-25T11:02:50.350Z,94.98
2023-05-25T11:04:15.925Z,100.00
2023-05-25T11:05:21.014Z,100.00
2023-05-25T11:06:40.245Z,100.00
2023-05-25T11:07:58.360Z,100.00
2023-05-25T11:09:01.954Z,100.00
2023-05-25T11:10:04.129Z,100.00
2023-05-25T11:11:06.137Z,100.00
2023-05-25T11:12:08.598Z,100.00
2023-05-25T11:13:28.961Z,100.00
2023-05-25T11:14:31.654Z,100.00
2023-05-25T11:15:34.757Z,100.00
2023-05-25T11:16:37.845Z,100.00
2023-05-25T11:17:47.850Z,100.00
2023-05-25T11:18:49.894Z,94.41
2023-05-25T11:19:53.896Z,94.95
2023-05-25T11:21:11.044Z,86.31
2023-05-25T11:22:14.160Z,72.45
2023-05-25T11:23:22.774Z,72.60
2023-05-25T11:24:24.779Z,66.20
2023-05-25T11:25:37.623Z,60.16
2023-05-25T11:26:52.392Z,61.48
2023-05-25T11:27:56.104Z,65.59
2023-05-25T11:29:01.954Z,67.74
2023-05-25T11:30:04.142Z,70.55
2023-05-25T11:31:06.565Z,73.37
2023-05-25T11:32:16.237Z,71.69
2023-05-25T11:33:21.684Z,75.88
2023-05-25T11:34:28.218Z,74.39
2023-05-25T11:35:33.854Z,75.57
2023-05-25T11:36:36.222Z,75.12
2023-05-25T11:37:41.532Z,80.22
2023-05-25T11:38:53.201Z,83.25
2023-05-25T11:40:06.781Z,88.66
2023-05-25T11:41:16.642Z,85.46
2023-05-25T11:42:20.112Z,84.92
2023-05-25T11:43:23.426Z,84.41
2023-05-25T11:44:36.299Z,78.82
2023-05-25T11:45:39.341Z,73.56
2023-05-25T11:46:43.610Z,70.54
2023-05-25T11:47:46.069Z,66.85
2023-05-25T11:48:52.352Z,63.68
2023-05-25T11:49:55.545Z,58.52
2023-05-25T11:51:04.249Z,58.07
2023-05-25T11:52:07.081Z,57.76
2023-05-25T11:53:10.621Z,57.15
2023-05-25T11:54:20.889Z,59.43
2023-05-25T11:55:22.890Z,59.86
2023-05-25T11:56:35.045Z,61.51
2023-05-25T11:57:39.159Z,68.06
2023-05-25T11:58:41.458Z,70.37
2023-05-25T11:59:49.927Z,73.87
2023-05-25T12:00:52.806Z,77.13
2023-05-25T12:01:58.407Z,77.69
2023-05-25T12:03:00.434Z,79.54
2023-05-25T12:04:08.356Z,85.61
2023-05-25T12:05:11.806Z,89.66
2023-05-25T12:06:24.115Z,90.54
2023-05-25T12:07:27.030Z,84.92
2023-05-25T12:08:32.937Z,86.46
2023-05-25T12:09:35.575Z,87.52
2023-05-25T12:10:50.074Z,90.16
2023-05-25T12:11:52.342Z,87.15
2023-05-25T12:12:58.307Z,81.19
2023-05-25T12:14:01.320Z,84.93
2023-05-25T12:15:03.692Z,72.94
2023-05-25T12:16:05.744Z,70.34
2023-05-25T12:17:07.883Z,67.77
2023-05-25T12:18:10.011Z,67.98
2023-05-25T12:19:12.559Z,66.42
2023-05-25T12:20:15.467Z,67.64
2023-05-25T12:21:18.024Z,69.46
2023-05-25T12:22:20.092Z,71.12
2023-05-25T12:23:22.200Z,69.09
2023-05-25T12:24:25.174Z,72.72
2023-05-25T12:25:30.770Z,73.32
2023-05-25T12:26:51.010Z,76.08
2023-05-25T12:28:12.154Z,77.92
2023-05-25T12:29:14.529Z,82.45
2023-05-25T12:30:16.730Z,84.40
2023-05-25T12:31:25.541Z,84.61
2023-05-25T12:32:27.593Z,86.09
2023-05-25T12:33:29.588Z,86.26
2023-05-25T12:34:31.733Z,91.19
2023-05-25T12:35:47.366Z,86.00
2023-05-25T12:36:53.031Z,82.24
2023-05-25T12:38:13.957Z,74.77
2023-05-25T12:39:16.910Z,69.91
2023-05-25T12:40:24.539Z,67.02
2023-05-25T12:41:26.916Z,68.40
2023-05-25T12:42:31.246Z,70.40
2023-05-25T12:43:39.751Z,70.29
2023-05-25T12:44:42.693Z,66.48
2023-05-25T12:45:44.785Z,66.31
2023-05-25T12:46:47.550Z,68.21
2023-05-25T12:47:50.088Z,64.24
2023-05-25T12:48:52.172Z,69.67
2023-05-25T12:50:10.798Z,70.56
2023-05-25T12:51:12.992Z,68.38
2023-05-25T12:52:36.741Z,71.62
2023-05-25T12:53:51.522Z,71.23
2023-05-25T12:54:53.573Z,69.51
2023-05-25T12:56:02.738Z,69.41
2023-05-25T12:57:07.963Z,69.43
2023-05-25T12:58:25.563Z,70.51
2023-05-25T12:59:27.553Z,71.37
2023-05-25T13:00:33.284Z,71.07
2023-05-25T13:01:35.686Z,67.94
2023-05-25T13:02:37.719Z,70.44
2023-05-25T13:03:39.780Z,71.59
2023-05-25T13:04:41.995Z,72.89
2023-05-25T13:05:46.412Z,72.50
2023-05-25T13:06:48.686Z,73.45
2023-05-25T13:07:51.217Z,73.33
2023-05-25T13:08:53.201Z,72.59
2023-05-25T13:09:55.215Z,75.13
2023-05-25T13:10:57.181Z,74.19
2023-05-25T13:11:59.391Z,74.48
2023-05-25T13:13:01.372Z,74.59
2023-05-25T13:14:04.251Z,72.71
2023-05-25T13:15:07.326Z,73.87
2023-05-25T13:16:09.384Z,71.57
2023-05-25T13:17:11.520Z,72.11
2023-05-25T13:18:13.519Z,75.43
2023-05-25T13:19:15.589Z,73.76
2023-05-25T13:20:22.023Z,77.53
2023-05-25T13:21:24.032Z,74.48
2023-05-25T13:22:26.098Z,75.36
2023-05-25T13:23:28.053Z,75.60
2023-05-25T13:24:30.031Z,75.77